createdAt,value
2017-06-15T00:00:41.803Z,0
2017-06-15T00:01:42.398Z,0
2017-06-15T00:02:42.393Z,0
2017-06-15T00:03:42.361Z,0
2017-06-15T00:04:42.695Z,0
2017-06-15T00:05:42.352Z,0
2017-06-15T00:06:42.342Z,0
2017-06-15T00:07:41.762Z,0
2017-06-15T00:08:42.309Z,0
2017-06-15T00:09:42.308Z,0
2017-06-15T00:10:41.967Z,0
2017-06-15T00:11:41.630Z,0
2017-06-15T00:12:42.329Z,0
2017-06-15T00:13:42.203Z,0
2017-06-15T00:14:42.254Z,0
2017-06-15T00:15:41.873Z,0
2017-06-15T00:16:42.313Z,0
2017-06-15T00:17:42.176Z,0
2017-06-15T00:18:41.851Z,0
2017-06-15T00:19:42.152Z,0
2017-06-15T00:20:41.517Z,0
2017-06-15T00:21:41.800Z,0
2017-06-15T00:22:42.395Z,0
2017-06-15T00:23:42.081Z,0
2017-06-15T00:24:42.081Z,0
2017-06-15T00:25:42.057Z,0
2017-06-15T00:26:41.718Z,0
2017-06-15T00:27:42.322Z,0
2017-06-15T00:28:42.317Z,0
2017-06-15T00:29:42.001Z,0
2017-06-15T00:30:42.264Z,0
2017-06-15T00:31:41.952Z,0
2017-06-15T00:32:42.232Z,0
2017-06-15T00:33:42.242Z,0
2017-06-15T00:34:42.203Z,0
2017-06-15T00:35:41.892Z,0
2017-06-15T00:36:41.625Z,0
2017-06-15T00:37:41.848Z,0
2017-06-15T00:38:42.168Z,0
2017-06-15T00:39:42.131Z,0
2017-06-15T00:40:41.202Z,0
2017-06-15T00:41:42.104Z,0
2017-06-15T00:42:42.077Z,0
2017-06-15T00:43:41.765Z,0
2017-06-15T00:44:41.765Z,0
2017-06-15T00:45:41.752Z,0
2017-06-15T00:46:41.789Z,0
2017-06-15T00:47:41.767Z,0
2017-06-15T00:48:41.390Z,0
2017-06-15T00:49:41.705Z,0
2017-06-15T00:50:41.714Z,0
2017-06-15T00:51:41.664Z,0
2017-06-15T00:52:41.675Z,0
2017-06-15T00:53:41.011Z,0
2017-06-15T00:54:42.013Z,0
2017-06-15T00:55:42.037Z,0
2017-06-15T00:56:41.389Z,0
2017-06-15T00:57:41.304Z,0
2017-06-15T00:58:41.650Z,0
2017-06-15T00:59:41.860Z,0
2017-06-15T01:00:41.642Z,0
2017-06-15T01:01:41.207Z,0
2017-06-15T01:02:41.570Z,0
2017-06-15T01:03:41.174Z,0
2017-06-15T01:04:41.771Z,0
2017-06-15T01:05:41.471Z,0
2017-06-15T01:06:41.451Z,0
2017-06-15T01:07:41.426Z,0
2017-06-15T01:08:41.103Z,0
2017-06-15T01:09:41.390Z,0
2017-06-15T01:10:41.371Z,0
2017-06-15T01:11:41.081Z,0
2017-06-15T01:12:41.740Z,0
2017-06-15T01:13:41.019Z,0
2017-06-15T01:14:41.298Z,0
2017-06-15T01:15:41.305Z,0
2017-06-15T01:16:41.071Z,0
2017-06-15T01:17:40.962Z,0
2017-06-15T01:18:41.074Z,0
2017-06-15T01:19:40.933Z,0
2017-06-15T01:20:40.923Z,0
2017-06-15T01:21:40.900Z,0
2017-06-15T01:22:40.893Z,0
2017-06-15T01:23:41.181Z,0
2017-06-15T01:24:41.148Z,0
2017-06-15T01:25:40.842Z,0
2017-06-15T01:26:41.495Z,0
2017-06-15T01:27:41.160Z,0
2017-06-15T01:28:40.782Z,0
2017-06-15T01:29:40.882Z,0
2017-06-15T01:30:40.762Z,0
2017-06-15T01:31:40.140Z,0
2017-06-15T01:32:40.741Z,0
2017-06-15T01:33:41.020Z,0
2017-06-15T01:34:40.722Z,0
2017-06-15T01:35:41.004Z,0
2017-06-15T01:36:40.970Z,0
2017-06-15T01:37:41.260Z,0
2017-06-15T01:38:41.251Z,0
2017-06-15T01:39:41.011Z,0
2017-06-15T01:40:40.933Z,0
2017-06-15T01:41:40.922Z,0
2017-06-15T01:42:40.895Z,0
2017-06-15T01:43:40.570Z,0
2017-06-15T01:44:40.882Z,0
2017-06-15T01:45:40.842Z,0
2017-06-15T01:46:40.831Z,0
2017-06-15T01:47:40.865Z,0
2017-06-15T01:48:41.081Z,0
2017-06-15T01:49:40.802Z,0
2017-06-15T01:50:41.081Z,0
2017-06-15T01:51:40.750Z,0
2017-06-15T01:52:41.039Z,0
2017-06-15T01:53:41.081Z,0
2017-06-15T01:54:41.011Z,0
2017-06-15T01:55:41.011Z,0
2017-06-15T01:56:40.459Z,0
2017-06-15T01:57:40.653Z,0
2017-06-15T01:58:40.640Z,0
2017-06-15T01:59:40.936Z,0
2017-06-15T02:00:40.936Z,0
2017-06-15T02:01:40.590Z,0
2017-06-15T02:02:40.901Z,0
2017-06-15T02:03:40.861Z,0
2017-06-15T02:04:40.559Z,0
2017-06-15T02:05:40.240Z,0
2017-06-15T02:06:40.523Z,0
2017-06-15T02:07:40.517Z,0
2017-06-15T02:08:40.803Z,0
2017-06-15T02:09:39.850Z,0
2017-06-15T02:10:40.460Z,0
2017-06-15T02:11:40.457Z,0
2017-06-15T02:12:40.496Z,0
2017-06-15T02:13:40.408Z,0
2017-06-15T02:14:40.491Z,0
2017-06-15T02:15:39.761Z,0
2017-06-15T02:16:40.374Z,0
2017-06-15T02:17:40.374Z,0
2017-06-15T02:18:40.620Z,0
2017-06-15T02:19:40.627Z,0
2017-06-15T02:20:40.309Z,0
2017-06-15T02:21:40.322Z,0
2017-06-15T02:22:40.290Z,0
2017-06-15T02:23:39.651Z,0
2017-06-15T02:24:40.148Z,0
2017-06-15T02:25:40.217Z,0
2017-06-15T02:26:39.917Z,0
2017-06-15T02:27:39.890Z,0
2017-06-15T02:28:40.470Z,0
2017-06-15T02:29:40.242Z,0
2017-06-15T02:30:40.151Z,0
2017-06-15T02:31:40.438Z,0
2017-06-15T02:32:39.804Z,0
2017-06-15T02:33:40.421Z,0
2017-06-15T02:34:40.054Z,0
2017-06-15T02:35:39.455Z,0
2017-06-15T02:36:40.054Z,0
2017-06-15T02:37:39.791Z,0
2017-06-15T02:38:39.391Z,0
2017-06-15T02:39:39.731Z,0
2017-06-15T02:40:39.680Z,0
2017-06-15T02:41:39.962Z,0
2017-06-15T02:42:39.962Z,0
2017-06-15T02:43:39.687Z,0
2017-06-15T02:44:40.243Z,0
2017-06-15T02:45:39.297Z,0
2017-06-15T02:46:39.882Z,0
2017-06-15T02:47:39.872Z,0
2017-06-15T02:48:39.861Z,0
2017-06-15T02:49:40.018Z,0
2017-06-15T02:50:39.847Z,0
2017-06-15T02:51:39.224Z,0
2017-06-15T02:52:39.801Z,0
2017-06-15T02:53:39.793Z,0
2017-06-15T02:54:40.095Z,0
2017-06-15T02:55:39.761Z,0
2017-06-15T02:56:39.122Z,0
2017-06-15T02:57:39.713Z,0
2017-06-15T02:58:40.079Z,0
2017-06-15T02:59:39.470Z,0
2017-06-15T03:00:39.730Z,0
2017-06-15T03:01:39.772Z,0
2017-06-15T03:02:39.307Z,0
2017-06-15T03:03:39.742Z,0
2017-06-15T03:04:39.920Z,0
2017-06-15T03:05:39.589Z,0
2017-06-15T03:06:39.583Z,0
2017-06-15T03:07:38.931Z,0
2017-06-15T03:08:39.638Z,0
2017-06-15T03:09:39.672Z,0
2017-06-15T03:10:38.886Z,0
2017-06-15T03:11:39.632Z,0
2017-06-15T03:12:39.780Z,0
2017-06-15T03:13:39.139Z,0
2017-06-15T03:14:39.754Z,0
2017-06-15T03:15:39.507Z,0
2017-06-15T03:16:39.799Z,0
2017-06-15T03:17:39.811Z,0
2017-06-15T03:18:39.395Z,5
2017-06-15T03:19:39.106Z,5
2017-06-15T03:20:39.019Z,5
2017-06-15T03:21:39.720Z,5
2017-06-15T03:22:39.630Z,5
2017-06-15T03:23:39.663Z,5
2017-06-15T03:24:39.267Z,5
2017-06-15T03:25:39.238Z,5
2017-06-15T03:26:39.095Z,5
2017-06-15T03:27:38.597Z,5
2017-06-15T03:28:39.571Z,5
2017-06-15T03:29:39.555Z,5
2017-06-15T03:30:38.913Z,5
2017-06-15T03:31:39.591Z,5
2017-06-15T03:32:38.591Z,10
2017-06-15T03:33:39.130Z,10
2017-06-15T03:34:38.510Z,10
2017-06-15T03:35:38.784Z,10
2017-06-15T03:36:38.799Z,10
2017-06-15T03:37:38.807Z,10
2017-06-15T03:38:38.761Z,10
2017-06-15T03:39:38.451Z,10
2017-06-15T03:40:38.712Z,10
2017-06-15T03:41:38.736Z,10
2017-06-15T03:42:38.984Z,15
2017-06-15T03:43:38.967Z,15
2017-06-15T03:44:38.941Z,15
2017-06-15T03:45:38.937Z,15
2017-06-15T03:46:38.313Z,15
2017-06-15T03:47:38.947Z,15
2017-06-15T03:48:38.890Z,15
2017-06-15T03:49:38.995Z,15
2017-06-15T03:50:39.155Z,15
2017-06-15T03:51:38.545Z,20
2017-06-15T03:52:38.831Z,20
2017-06-15T03:53:38.546Z,20
2017-06-15T03:54:38.482Z,20
2017-06-15T03:55:38.476Z,20
2017-06-15T03:56:38.497Z,20
2017-06-15T03:57:38.720Z,20
2017-06-15T03:58:39.085Z,20
2017-06-15T03:59:38.392Z,25
2017-06-15T04:00:38.392Z,25
2017-06-15T04:01:39.054Z,25
2017-06-15T04:02:38.371Z,25
2017-06-15T04:03:38.644Z,25
2017-06-15T04:04:38.938Z,25
2017-06-15T04:05:38.607Z,25
2017-06-15T04:06:38.596Z,25
2017-06-15T04:07:38.887Z,25
2017-06-15T04:08:38.881Z,30
2017-06-15T04:09:38.542Z,30
2017-06-15T04:10:38.259Z,30
2017-06-15T04:11:38.513Z,30
2017-06-15T04:12:38.851Z,30
2017-06-15T04:13:38.512Z,30
2017-06-15T04:14:38.462Z,30
2017-06-15T04:15:37.632Z,30
2017-06-15T04:16:38.758Z,30
2017-06-15T04:17:38.432Z,30
2017-06-15T04:18:38.415Z,30
2017-06-15T04:19:38.790Z,35
2017-06-15T04:20:38.072Z,35
2017-06-15T04:21:38.357Z,35
2017-06-15T04:22:38.358Z,35
2017-06-15T04:23:38.632Z,35
2017-06-15T04:24:38.324Z,35
2017-06-15T04:25:38.599Z,35
2017-06-15T04:26:37.974Z,35
2017-06-15T04:27:38.413Z,35
2017-06-15T04:28:38.237Z,35
2017-06-15T04:29:38.519Z,40
2017-06-15T04:30:38.520Z,40
2017-06-15T04:31:38.512Z,40
2017-06-15T04:32:38.485Z,40
2017-06-15T04:33:38.472Z,40
2017-06-15T04:34:38.526Z,40
2017-06-15T04:35:38.460Z,45
2017-06-15T04:36:38.432Z,45
2017-06-15T04:37:37.819Z,45
2017-06-15T04:38:37.820Z,45
2017-06-15T04:39:37.764Z,45
2017-06-15T04:40:38.379Z,50
2017-06-15T04:41:37.435Z,50
2017-06-15T04:42:37.745Z,50
2017-06-15T04:43:37.493Z,50
2017-06-15T04:44:37.805Z,50
2017-06-15T04:45:37.669Z,50
2017-06-15T04:46:38.263Z,50
2017-06-15T04:47:38.241Z,50
2017-06-15T04:48:37.321Z,50
2017-06-15T04:49:37.604Z,55
2017-06-15T04:50:36.979Z,55
2017-06-15T04:51:37.885Z,55
2017-06-15T04:52:37.562Z,55
2017-06-15T04:53:37.539Z,55
2017-06-15T04:54:37.322Z,55
2017-06-15T04:55:37.833Z,55
2017-06-15T04:56:38.113Z,60
2017-06-15T04:57:37.491Z,60
2017-06-15T04:58:37.770Z,60
2017-06-15T04:59:38.109Z,55
2017-06-15T05:00:37.453Z,60
2017-06-15T05:01:37.713Z,60
2017-06-15T05:02:37.703Z,60
2017-06-15T05:03:37.401Z,60
2017-06-15T05:04:37.369Z,60
2017-06-15T05:05:37.977Z,65
2017-06-15T05:06:37.047Z,65
2017-06-15T05:07:37.933Z,65
2017-06-15T05:08:37.952Z,70
2017-06-15T05:09:37.302Z,70
2017-06-15T05:10:37.605Z,70
2017-06-15T05:11:37.891Z,70
2017-06-15T05:12:36.951Z,70
2017-06-15T05:13:36.634Z,70
2017-06-15T05:14:36.901Z,75
2017-06-15T05:15:37.262Z,75
2017-06-15T05:16:37.613Z,75
2017-06-15T05:17:37.797Z,80
2017-06-15T05:18:37.801Z,80
2017-06-15T05:19:36.826Z,80
2017-06-15T05:20:37.434Z,80
2017-06-15T05:21:37.529Z,80
2017-06-15T05:22:37.100Z,80
2017-06-15T05:23:37.360Z,85
2017-06-15T05:24:37.433Z,85
2017-06-15T05:25:37.042Z,85
2017-06-15T05:26:37.391Z,85
2017-06-15T05:27:37.490Z,80
2017-06-15T05:28:36.690Z,80
2017-06-15T05:29:37.034Z,80
2017-06-15T05:30:37.703Z,85
2017-06-15T05:31:37.572Z,90
2017-06-15T05:32:36.320Z,85
2017-06-15T05:33:36.665Z,90
2017-06-15T05:34:36.892Z,90
2017-06-15T05:35:37.572Z,95
2017-06-15T05:36:37.170Z,95
2017-06-15T05:37:37.164Z,95
2017-06-15T05:38:37.161Z,95
2017-06-15T05:39:37.432Z,95
2017-06-15T05:40:37.450Z,95
2017-06-15T05:41:37.109Z,95
2017-06-15T05:42:37.081Z,95
2017-06-15T05:43:37.452Z,100
2017-06-15T05:44:37.121Z,100
2017-06-15T05:45:37.383Z,100
2017-06-15T05:46:37.025Z,100
2017-06-15T05:47:36.743Z,100
2017-06-15T05:48:37.310Z,100
2017-06-15T05:49:36.971Z,100
2017-06-15T05:50:36.978Z,100
2017-06-15T05:51:36.937Z,100
2017-06-15T05:52:36.634Z,100
2017-06-15T05:53:37.242Z,95
2017-06-15T05:54:36.612Z,95
2017-06-15T05:55:36.272Z,95
2017-06-15T05:56:36.272Z,95
2017-06-15T05:57:36.860Z,95
2017-06-15T05:58:37.176Z,100
2017-06-15T05:59:36.841Z,100
2017-06-15T06:00:36.837Z,100
2017-06-15T06:01:37.148Z,100
2017-06-15T06:02:36.780Z,105
2017-06-15T06:03:37.108Z,105
2017-06-15T06:04:36.801Z,115
2017-06-15T06:05:36.433Z,120
2017-06-15T06:06:36.117Z,115
2017-06-15T06:07:36.713Z,115
2017-06-15T06:08:37.021Z,115
2017-06-15T06:09:36.360Z,115
2017-06-15T06:10:36.678Z,115
2017-06-15T06:11:36.342Z,115
2017-06-15T06:12:36.991Z,115
2017-06-15T06:13:36.934Z,115
2017-06-15T06:14:35.980Z,115
2017-06-15T06:15:36.613Z,120
2017-06-15T06:16:35.974Z,125
2017-06-15T06:17:35.943Z,125
2017-06-15T06:18:36.858Z,125
2017-06-15T06:19:36.226Z,125
2017-06-15T06:20:36.213Z,120
2017-06-15T06:21:36.520Z,125
2017-06-15T06:22:36.824Z,125
2017-06-15T06:23:36.161Z,125
2017-06-15T06:24:36.462Z,130
2017-06-15T06:25:36.133Z,130
2017-06-15T06:26:36.131Z,135
2017-06-15T06:27:36.434Z,135
2017-06-15T06:28:36.713Z,135
2017-06-15T06:29:36.703Z,135
2017-06-15T06:30:36.390Z,140
2017-06-15T06:31:36.074Z,140
2017-06-15T06:32:36.348Z,140
2017-06-15T06:33:36.034Z,140
2017-06-15T06:34:36.316Z,145
2017-06-15T06:35:36.614Z,145
2017-06-15T06:36:36.292Z,145
2017-06-15T06:37:36.286Z,145
2017-06-15T06:38:36.270Z,145
2017-06-15T06:39:35.933Z,150
2017-06-15T06:40:36.542Z,150
2017-06-15T06:41:36.532Z,155
2017-06-15T06:42:36.243Z,155
2017-06-15T06:43:35.895Z,155
2017-06-15T06:44:36.198Z,160
2017-06-15T06:45:36.228Z,160
2017-06-15T06:46:36.453Z,160
2017-06-15T06:47:36.174Z,155
2017-06-15T06:48:36.441Z,155
2017-06-15T06:49:35.823Z,155
2017-06-15T06:50:36.117Z,155
2017-06-15T06:51:36.098Z,150
2017-06-15T06:52:36.123Z,145
2017-06-15T06:53:36.133Z,145
2017-06-15T06:54:36.521Z,145
2017-06-15T06:55:36.340Z,150
2017-06-15T06:56:36.037Z,150
2017-06-15T06:57:35.702Z,155
2017-06-15T06:58:36.311Z,165
2017-06-15T06:59:36.004Z,165
2017-06-15T07:00:36.011Z,165
2017-06-15T07:01:36.305Z,165
2017-06-15T07:02:35.354Z,160
2017-06-15T07:03:36.250Z,150
2017-06-15T07:04:36.012Z,150
2017-06-15T07:05:36.199Z,155
2017-06-15T07:06:35.907Z,165
2017-06-15T07:07:35.565Z,165
2017-06-15T07:08:36.003Z,175
2017-06-15T07:09:35.903Z,185
2017-06-15T07:10:35.903Z,185
2017-06-15T07:11:35.523Z,185
2017-06-15T07:12:35.526Z,190
2017-06-15T07:13:35.823Z,185
2017-06-15T07:14:36.283Z,185
2017-06-15T07:15:35.464Z,185
2017-06-15T07:16:35.835Z,185
2017-06-15T07:17:36.072Z,185
2017-06-15T07:18:35.486Z,185
2017-06-15T07:19:36.102Z,185
2017-06-15T07:20:36.102Z,185
2017-06-15T07:21:36.073Z,185
2017-06-15T07:22:36.108Z,185
2017-06-15T07:23:35.703Z,185
2017-06-15T07:24:35.993Z,185
2017-06-15T07:25:35.676Z,185
2017-06-15T07:26:35.995Z,185
2017-06-15T07:27:35.361Z,185
2017-06-15T07:28:35.614Z,185
2017-06-15T07:29:35.951Z,185
2017-06-15T07:30:35.591Z,185
2017-06-15T07:31:35.919Z,190
2017-06-15T07:32:35.573Z,200
2017-06-15T07:33:35.829Z,200
2017-06-15T07:34:35.568Z,205
2017-06-15T07:35:35.567Z,210
2017-06-15T07:36:35.524Z,235
2017-06-15T07:37:35.549Z,240
2017-06-15T07:38:34.927Z,230
2017-06-15T07:39:35.494Z,230
2017-06-15T07:40:35.807Z,210
2017-06-15T07:41:35.162Z,210
2017-06-15T07:42:35.143Z,215
2017-06-15T07:43:35.462Z,220
2017-06-15T07:44:35.539Z,210
2017-06-15T07:45:35.440Z,215
2017-06-15T07:46:35.084Z,225
2017-06-15T07:47:35.079Z,215
2017-06-15T07:48:35.374Z,225
2017-06-15T07:49:35.665Z,230
2017-06-15T07:50:35.663Z,235
2017-06-15T07:51:35.664Z,235
2017-06-15T07:52:35.634Z,235
2017-06-15T07:53:35.649Z,235
2017-06-15T07:54:35.018Z,245
2017-06-15T07:55:35.602Z,250
2017-06-15T07:56:35.632Z,260
2017-06-15T07:57:34.987Z,260
2017-06-15T07:58:35.574Z,265
2017-06-15T07:59:35.572Z,270
2017-06-15T08:00:35.552Z,265
2017-06-15T08:01:35.564Z,270
2017-06-15T08:02:34.933Z,265
2017-06-15T08:03:35.202Z,270
2017-06-15T08:04:35.274Z,260
2017-06-15T08:05:35.220Z,265
2017-06-15T08:06:35.177Z,250
2017-06-15T08:07:35.223Z,245
2017-06-15T08:08:35.194Z,230
2017-06-15T08:09:34.842Z,255
2017-06-15T08:10:35.450Z,255
2017-06-15T08:11:34.824Z,255
2017-06-15T08:12:35.523Z,255
2017-06-15T08:13:34.807Z,265
2017-06-15T08:14:35.094Z,265
2017-06-15T08:15:35.062Z,270
2017-06-15T08:16:35.066Z,270
2017-06-15T08:17:35.055Z,270
2017-06-15T08:18:34.412Z,265
2017-06-15T08:19:34.740Z,265
2017-06-15T08:20:35.380Z,285
2017-06-15T08:21:35.021Z,285
2017-06-15T08:22:35.252Z,285
2017-06-15T08:23:35.005Z,290
2017-06-15T08:24:35.294Z,295
2017-06-15T08:25:34.970Z,295
2017-06-15T08:26:35.320Z,300
2017-06-15T08:27:34.961Z,270
2017-06-15T08:28:34.942Z,265
2017-06-15T08:29:34.642Z,265
2017-06-15T08:30:35.260Z,275
2017-06-15T08:31:34.980Z,285
2017-06-15T08:32:34.913Z,300
2017-06-15T08:33:34.595Z,300
2017-06-15T08:34:35.285Z,315
2017-06-15T08:35:35.195Z,315
2017-06-15T08:36:35.189Z,275
2017-06-15T08:37:34.854Z,315
2017-06-15T08:38:35.202Z,325
2017-06-15T08:39:34.570Z,320
2017-06-15T08:40:35.130Z,315
2017-06-15T08:41:34.829Z,300
2017-06-15T08:42:34.801Z,285
2017-06-15T08:43:35.114Z,290
2017-06-15T08:44:34.477Z,290
2017-06-15T08:45:34.793Z,295
2017-06-15T08:46:35.077Z,310
2017-06-15T08:47:35.076Z,315
2017-06-15T08:48:35.087Z,315
2017-06-15T08:49:34.445Z,320
2017-06-15T08:50:34.746Z,305
2017-06-15T08:51:34.457Z,295
2017-06-15T08:52:34.729Z,295
2017-06-15T08:53:35.045Z,295
2017-06-15T08:54:34.716Z,310
2017-06-15T08:55:34.405Z,310
2017-06-15T08:56:34.759Z,305
2017-06-15T08:57:35.016Z,320
2017-06-15T08:58:34.985Z,315
2017-06-15T08:59:34.999Z,295
2017-06-15T09:00:35.032Z,315
2017-06-15T09:01:34.654Z,325
2017-06-15T09:02:34.421Z,330
2017-06-15T09:03:34.634Z,335
2017-06-15T09:04:34.632Z,330
2017-06-15T09:05:34.311Z,330
2017-06-15T09:06:34.922Z,325
2017-06-15T09:07:34.922Z,330
2017-06-15T09:08:34.597Z,335
2017-06-15T09:09:34.901Z,340
2017-06-15T09:10:34.281Z,325
2017-06-15T09:11:34.570Z,325
2017-06-15T09:12:34.278Z,335
2017-06-15T09:13:34.567Z,330
2017-06-15T09:14:34.236Z,340
2017-06-15T09:15:34.849Z,335
2017-06-15T09:16:34.886Z,350
2017-06-15T09:17:34.535Z,340
2017-06-15T09:18:34.857Z,330
2017-06-15T09:19:34.831Z,325
2017-06-15T09:20:34.185Z,340
2017-06-15T09:21:34.504Z,335
2017-06-15T09:22:34.784Z,335
2017-06-15T09:23:34.489Z,330
2017-06-15T09:24:34.510Z,320
2017-06-15T09:25:34.799Z,350
2017-06-15T09:26:34.259Z,345
2017-06-15T09:27:34.150Z,335
2017-06-15T09:28:34.788Z,350
2017-06-15T09:29:34.122Z,355
2017-06-15T09:30:34.749Z,340
2017-06-15T09:31:34.762Z,330
2017-06-15T09:32:34.142Z,320
2017-06-15T09:33:34.099Z,375
2017-06-15T09:34:34.427Z,415
2017-06-15T09:35:34.714Z,440
2017-06-15T09:36:34.430Z,490
2017-06-15T09:37:34.420Z,550
2017-06-15T09:38:34.390Z,530
2017-06-15T09:39:34.727Z,565
2017-06-15T09:40:33.774Z,610
2017-06-15T09:41:34.397Z,620
2017-06-15T09:42:34.087Z,845
2017-06-15T09:43:34.678Z,855
2017-06-15T09:44:34.739Z,885
2017-06-15T09:45:34.695Z,925
2017-06-15T09:46:34.662Z,930
2017-06-15T09:47:34.140Z,880
2017-06-15T09:48:34.379Z,815
2017-06-15T09:49:34.035Z,790
2017-06-15T09:50:34.025Z,825
2017-06-15T09:51:34.677Z,890
2017-06-15T09:52:34.321Z,905
2017-06-15T09:53:34.668Z,885
2017-06-15T09:54:34.633Z,835
2017-06-15T09:55:33.699Z,855
2017-06-15T09:56:34.323Z,840
2017-06-15T09:57:34.594Z,855
2017-06-15T09:58:33.691Z,820
2017-06-15T09:59:34.596Z,805
2017-06-15T10:00:34.039Z,835
2017-06-15T10:01:34.308Z,840
2017-06-15T10:02:33.976Z,820
2017-06-15T10:03:34.369Z,780
2017-06-15T10:04:33.968Z,800
2017-06-15T10:05:34.581Z,755
2017-06-15T10:06:34.575Z,760
2017-06-15T10:07:34.298Z,785
2017-06-15T10:08:34.285Z,790
2017-06-15T10:09:34.007Z,610
2017-06-15T10:10:34.268Z,655
2017-06-15T10:11:34.060Z,610
2017-06-15T10:12:34.245Z,760
2017-06-15T10:13:34.558Z,365
2017-06-15T10:14:34.564Z,325
2017-06-15T10:15:34.305Z,360
2017-06-15T10:16:33.681Z,275
2017-06-15T10:17:34.325Z,295
2017-06-15T10:18:34.257Z,285
2017-06-15T10:19:34.555Z,275
2017-06-15T10:20:34.234Z,330
2017-06-15T10:21:34.316Z,255
2017-06-15T10:22:34.270Z,245
2017-06-15T10:23:34.515Z,255
2017-06-15T10:24:34.524Z,265
2017-06-15T10:25:34.525Z,305
2017-06-15T10:26:33.900Z,295
2017-06-15T10:27:34.508Z,310
2017-06-15T10:28:34.486Z,265
2017-06-15T10:29:34.490Z,275
2017-06-15T10:30:34.493Z,265
2017-06-15T10:31:34.193Z,270
2017-06-15T10:32:33.871Z,320
2017-06-15T10:33:34.180Z,275
2017-06-15T10:34:33.848Z,270
2017-06-15T10:35:34.149Z,305
2017-06-15T10:36:33.851Z,305
2017-06-15T10:37:33.816Z,295
2017-06-15T10:38:33.529Z,310
2017-06-15T10:39:33.919Z,310
2017-06-15T10:40:34.223Z,325
2017-06-15T10:41:34.133Z,350
2017-06-15T10:42:34.107Z,340
2017-06-15T10:43:34.110Z,340
2017-06-15T10:44:34.468Z,345
2017-06-15T10:45:34.441Z,350
2017-06-15T10:46:34.183Z,320
2017-06-15T10:47:34.116Z,295
2017-06-15T10:48:34.147Z,295
2017-06-15T10:49:34.447Z,295
2017-06-15T10:50:34.134Z,300
2017-06-15T10:51:34.085Z,295
2017-06-15T10:52:33.740Z,290
2017-06-15T10:53:33.734Z,290
2017-06-15T10:54:34.038Z,285
2017-06-15T10:55:34.078Z,280
2017-06-15T10:56:34.351Z,275
2017-06-15T10:57:34.328Z,275
2017-06-15T10:58:34.053Z,275
2017-06-15T10:59:33.736Z,275
2017-06-15T11:00:34.003Z,280
2017-06-15T11:01:33.991Z,280
2017-06-15T11:02:33.976Z,285
2017-06-15T11:03:33.664Z,290
2017-06-15T11:04:33.781Z,295
2017-06-15T11:05:33.660Z,310
2017-06-15T11:06:34.257Z,310
2017-06-15T11:07:33.643Z,295
2017-06-15T11:08:34.282Z,295
2017-06-15T11:09:33.765Z,305
2017-06-15T11:10:33.675Z,295
2017-06-15T11:11:34.220Z,300
2017-06-15T11:12:33.616Z,300
2017-06-15T11:13:33.898Z,315
2017-06-15T11:14:33.618Z,295
2017-06-15T11:15:34.196Z,335
2017-06-15T11:16:33.924Z,370
2017-06-15T11:17:34.202Z,340
2017-06-15T11:18:33.599Z,310
2017-06-15T11:19:33.888Z,315
2017-06-15T11:20:33.882Z,295
2017-06-15T11:21:34.176Z,310
2017-06-15T11:22:33.861Z,365
2017-06-15T11:23:33.572Z,360
2017-06-15T11:24:33.855Z,355
2017-06-15T11:25:33.538Z,340
2017-06-15T11:26:33.828Z,325
2017-06-15T11:27:33.832Z,325
2017-06-15T11:28:33.833Z,315
2017-06-15T11:29:33.817Z,305
2017-06-15T11:30:33.800Z,300
2017-06-15T11:31:34.151Z,285
2017-06-15T11:32:33.489Z,270
2017-06-15T11:33:33.475Z,260
2017-06-15T11:34:34.137Z,255
2017-06-15T11:35:33.793Z,240
2017-06-15T11:36:33.791Z,240
2017-06-15T11:37:33.790Z,240
2017-06-15T11:38:33.777Z,240
2017-06-15T11:39:34.071Z,235
2017-06-15T11:40:33.772Z,240
2017-06-15T11:41:33.751Z,235
2017-06-15T11:42:34.059Z,235
2017-06-15T11:43:33.723Z,230
2017-06-15T11:44:34.036Z,230
2017-06-15T11:45:33.734Z,230
2017-06-15T11:46:33.758Z,230
2017-06-15T11:47:33.881Z,230
2017-06-15T11:48:33.702Z,230
2017-06-15T11:49:33.786Z,225
2017-06-15T11:50:33.108Z,225
2017-06-15T11:51:33.685Z,225
2017-06-15T11:52:34.002Z,225
2017-06-15T11:53:34.014Z,225
2017-06-15T11:54:33.764Z,225
2017-06-15T11:55:33.703Z,225
2017-06-15T11:56:34.111Z,220
2017-06-15T11:57:33.370Z,225
2017-06-15T11:58:33.682Z,220
2017-06-15T11:59:33.954Z,215
2017-06-15T12:00:33.970Z,215
2017-06-15T12:01:33.646Z,215
2017-06-15T12:02:33.647Z,215
2017-06-15T12:03:33.644Z,215
2017-06-15T12:04:33.333Z,215
2017-06-15T12:05:33.937Z,215
2017-06-15T12:06:34.019Z,210
2017-06-15T12:07:33.925Z,210
2017-06-15T12:08:33.596Z,210
2017-06-15T12:09:33.919Z,210
2017-06-15T12:10:33.918Z,210
2017-06-15T12:11:33.921Z,205
2017-06-15T12:12:33.921Z,205
2017-06-15T12:13:33.965Z,205
2017-06-15T12:14:33.888Z,205
2017-06-15T12:15:33.923Z,205
2017-06-15T12:16:33.895Z,205
2017-06-15T12:17:33.881Z,205
2017-06-15T12:18:33.858Z,205
2017-06-15T12:19:33.888Z,200
2017-06-15T12:20:33.871Z,205
2017-06-15T12:21:33.563Z,205
2017-06-15T12:22:33.311Z,200
2017-06-15T12:23:33.825Z,200
2017-06-15T12:24:33.836Z,200
2017-06-15T12:25:33.835Z,200
2017-06-15T12:26:33.827Z,205
2017-06-15T12:27:33.595Z,205
2017-06-15T12:28:33.801Z,205
2017-06-15T12:29:33.538Z,205
2017-06-15T12:30:33.525Z,210
2017-06-15T12:31:33.513Z,205
2017-06-15T12:32:33.804Z,170
2017-06-15T12:33:33.172Z,145
2017-06-15T12:34:33.893Z,130
2017-06-15T12:35:33.805Z,140
2017-06-15T12:36:33.778Z,150
2017-06-15T12:37:33.148Z,175
2017-06-15T12:38:33.783Z,165
2017-06-15T12:39:33.446Z,185
2017-06-15T12:40:33.761Z,175
2017-06-15T12:41:33.856Z,155
2017-06-15T12:42:33.793Z,155
2017-06-15T12:43:33.112Z,150
2017-06-15T12:44:33.119Z,205
2017-06-15T12:45:33.503Z,200
2017-06-15T12:46:33.422Z,205
2017-06-15T12:47:33.743Z,210
2017-06-15T12:48:33.742Z,225
2017-06-15T12:49:33.083Z,225
2017-06-15T12:50:33.755Z,215
2017-06-15T12:51:33.176Z,210
2017-06-15T12:52:33.711Z,190
2017-06-15T12:53:33.692Z,185
2017-06-15T12:54:33.061Z,215
2017-06-15T12:55:33.676Z,215
2017-06-15T12:56:33.684Z,205
2017-06-15T12:57:33.670Z,160
2017-06-15T12:58:33.646Z,160
2017-06-15T12:59:33.390Z,160
2017-06-15T13:00:33.352Z,160
2017-06-15T13:01:33.325Z,165
2017-06-15T13:02:33.637Z,195
2017-06-15T13:03:33.323Z,195
2017-06-15T13:04:33.309Z,180
2017-06-15T13:05:33.295Z,185
2017-06-15T13:06:33.409Z,185
2017-06-15T13:07:33.598Z,185
2017-06-15T13:08:32.990Z,185
2017-06-15T13:09:33.285Z,195
2017-06-15T13:10:32.966Z,215
2017-06-15T13:11:33.593Z,200
2017-06-15T13:12:33.618Z,205
2017-06-15T13:13:33.294Z,190
2017-06-15T13:14:32.950Z,180
2017-06-15T13:15:33.292Z,175
2017-06-15T13:16:33.550Z,175
2017-06-15T13:17:33.545Z,185
2017-06-15T13:18:33.216Z,220
2017-06-15T13:19:33.560Z,220
2017-06-15T13:20:33.224Z,205
2017-06-15T13:21:33.221Z,205
2017-06-15T13:22:33.238Z,205
2017-06-15T13:23:32.902Z,205
2017-06-15T13:24:33.502Z,195
2017-06-15T13:25:33.196Z,190
2017-06-15T13:26:33.182Z,185
2017-06-15T13:27:33.200Z,180
2017-06-15T13:28:33.181Z,180
2017-06-15T13:29:33.177Z,170
2017-06-15T13:30:33.174Z,165
2017-06-15T13:31:33.487Z,165
2017-06-15T13:32:33.162Z,160
2017-06-15T13:33:33.171Z,155
2017-06-15T13:34:33.145Z,160
2017-06-15T13:35:33.441Z,150
2017-06-15T13:36:33.148Z,150
2017-06-15T13:37:33.460Z,150
2017-06-15T13:38:33.121Z,150
2017-06-15T13:39:33.420Z,150
2017-06-15T13:40:33.435Z,150
2017-06-15T13:41:33.220Z,150
2017-06-15T13:42:33.469Z,145
2017-06-15T13:43:33.405Z,145
2017-06-15T13:44:33.106Z,145
2017-06-15T13:45:33.417Z,135
2017-06-15T13:46:33.169Z,125
2017-06-15T13:47:32.790Z,115
2017-06-15T13:48:33.161Z,105
2017-06-15T13:49:33.074Z,100
2017-06-15T13:50:33.360Z,100
2017-06-15T13:51:32.747Z,95
2017-06-15T13:52:33.162Z,95
2017-06-15T13:53:33.344Z,100
2017-06-15T13:54:33.351Z,100
2017-06-15T13:55:33.331Z,100
2017-06-15T13:56:33.023Z,100
2017-06-15T13:57:32.400Z,105
2017-06-15T13:58:33.335Z,110
2017-06-15T13:59:33.024Z,115
2017-06-15T14:00:34.256Z,125
2017-06-15T14:01:33.288Z,130
2017-06-15T14:02:33.321Z,135
2017-06-15T14:03:33.313Z,140
2017-06-15T14:04:33.271Z,140
2017-06-15T14:05:32.994Z,145